sensor_id;sensor_type;location;lat;lon;timestamp;P1;durP1;ratioP1;P2;durP2;ratioP2
3901;SDS011;1966;49.908;9.156;2023-09-19T00:01:12;2.10;;;1.90;;
3901;SDS011;1966;49.908;9.156;2023-09-19T00:06:12;4.50;;;1.77;;
3901;SDS011;1966;49.908;9.156;2023-09-19T00:11:13;2.90;;;2.10;;
3901;SDS011;1966;49.908;9.156;2023-09-19T00:16:14;1.50;;;1.40;;
3901;SDS011;1966;49.908;9.156;2023-09-19T00:21:13;2.40;;;2.00;;
3901;SDS011;1966;49.908;9.156;2023-09-19T00:26:13;3.30;;;1.90;;
3901;SDS011;1966;49.908;9.156;2023-09-19T00:31:13;2.30;;;2.00;;
3901;SDS011;1966;49.908;9.156;2023-09-19T00:36:13;3.00;;;1.80;;
3901;SDS011;1966;49.908;9.156;2023-09-19T00:41:12;2.07;;;1.80;;
3901;SDS011;1966;49.908;9.156;2023-09-19T00:46:11;3.27;;;1.90;;
3901;SDS011;1966;49.908;9.156;2023-09-19T00:51:12;3.30;;;1.90;;
3901;SDS011;1966;49.908;9.156;2023-09-19T00:56:14;2.77;;;2.10;;
3901;SDS011;1966;49.908;9.156;2023-09-19T01:01:16;4.77;;;2.50;;
3901;SDS011;1966;49.908;9.156;2023-09-19T01:06:17;3.20;;;1.93;;
3901;SDS011;1966;49.908;9.156;2023-09-19T01:11:20;2.10;;;1.90;;
3901;SDS011;1966;49.908;9.156;2023-09-19T01:16:25;3.43;;;2.17;;
3901;SDS011;1966;49.908;9.156;2023-09-19T01:21:27;2.60;;;1.93;;
3901;SDS011;1966;49.908;9.156;2023-09-19T01:26:30;3.33;;;2.10;;
3901;SDS011;1966;49.908;9.156;2023-09-19T01:31:38;2.93;;;2.13;;
3901;SDS011;1966;49.908;9.156;2023-09-19T01:36:39;3.90;;;2.37;;
3901;SDS011;1966;49.908;9.156;2023-09-19T01:41:47;4.40;;;2.73;;
3901;SDS011;1966;49.908;9.156;2023-09-19T01:46:49;2.47;;;2.27;;
3901;SDS011;1966;49.908;9.156;2023-09-19T01:51:51;3.70;;;2.20;;
3901;SDS011;1966;49.908;9.156;2023-09-19T01:56:54;2.70;;;2.30;;
3901;SDS011;1966;49.908;9.156;2023-09-19T02:01:58;3.70;;;2.40;;
3901;SDS011;1966;49.908;9.156;2023-09-19T02:06:58;3.33;;;2.30;;
3901;SDS011;1966;49.908;9.156;2023-09-19T02:11:59;3.67;;;2.33;;
3901;SDS011;1966;49.908;9.156;2023-09-19T02:17:00;4.70;;;2.50;;
3901;SDS011;1966;49.908;9.156;2023-09-19T02:21:59;3.10;;;2.53;;
3901;SDS011;1966;49.908;9.156;2023-09-19T02:26:59;3.30;;;2.40;;
3901;SDS011;1966;49.908;9.156;2023-09-19T02:32:04;3.30;;;3.00;;
3901;SDS011;1966;49.908;9.156;2023-09-19T02:37:04;2.83;;;2.40;;
3901;SDS011;1966;49.908;9.156;2023-09-19T02:42:04;4.83;;;2.63;;
3901;SDS011;1966;49.908;9.156;2023-09-19T02:47:05;2.87;;;2.53;;
3901;SDS011;1966;49.908;9.156;2023-09-19T02:52:04;5.20;;;2.90;;
3901;SDS011;1966;49.908;9.156;2023-09-19T02:57:05;3.40;;;2.47;;
3901;SDS011;1966;49.908;9.156;2023-09-19T03:02:07;4.10;;;2.63;;
3901;SDS011;1966;49.908;9.156;2023-09-19T03:07:06;4.27;;;3.40;;
3901;SDS011;1966;49.908;9.156;2023-09-19T03:12:06;3.07;;;2.63;;
3901;SDS011;1966;49.908;9.156;2023-09-19T03:17:07;3.30;;;3.00;;
3901;SDS011;1966;49.908;9.156;2023-09-19T03:22:07;3.27;;;2.90;;
3901;SDS011;1966;49.908;9.156;2023-09-19T03:27:08;4.57;;;2.70;;
3901;SDS011;1966;49.908;9.156;2023-09-19T03:32:09;7.90;;;3.07;;
3901;SDS011;1966;49.908;9.156;2023-09-19T03:37:09;4.70;;;3.03;;
3901;SDS011;1966;49.908;9.156;2023-09-19T03:42:08;6.07;;;3.53;;
3901;SDS011;1966;49.908;9.156;2023-09-19T03:47:09;5.93;;;3.23;;
3901;SDS011;1966;49.908;9.156;2023-09-19T03:52:09;4.37;;;2.83;;
3901;SDS011;1966;49.908;9.156;2023-09-19T03:57:09;5.50;;;3.10;;
3901;SDS011;1966;49.908;9.156;2023-09-19T04:02:12;7.37;;;3.00;;
3901;SDS011;1966;49.908;9.156;2023-09-19T04:07:20;3.77;;;3.10;;
3901;SDS011;1966;49.908;9.156;2023-09-19T04:12:20;4.40;;;3.43;;
3901;SDS011;1966;49.908;9.156;2023-09-19T04:17:21;4.03;;;3.60;;
3901;SDS011;1966;49.908;9.156;2023-09-19T04:22:21;3.47;;;3.13;;
3901;SDS011;1966;49.908;9.156;2023-09-19T04:27:20;3.47;;;3.17;;
3901;SDS011;1966;49.908;9.156;2023-09-19T04:32:22;4.47;;;3.40;;
3901;SDS011;1966;49.908;9.156;2023-09-19T04:37:21;3.40;;;3.10;;
3901;SDS011;1966;49.908;9.156;2023-09-19T04:42:20;5.50;;;3.77;;
3901;SDS011;1966;49.908;9.156;2023-09-19T04:47:23;3.40;;;3.10;;
3901;SDS011;1966;49.908;9.156;2023-09-19T04:52:23;4.03;;;3.17;;
3901;SDS011;1966;49.908;9.156;2023-09-19T04:57:22;3.27;;;2.97;;
3901;SDS011;1966;49.908;9.156;2023-09-19T05:02:23;3.70;;;3.30;;
3901;SDS011;1966;49.908;9.156;2023-09-19T05:07:22;3.63;;;3.20;;
3901;SDS011;1966;49.908;9.156;2023-09-19T05:12:24;3.30;;;3.00;;
3901;SDS011;1966;49.908;9.156;2023-09-19T05:17:26;3.40;;;2.70;;
3901;SDS011;1966;49.908;9.156;2023-09-19T05:22:26;3.20;;;2.90;;
3901;SDS011;1966;49.908;9.156;2023-09-19T05:27:25;3.90;;;3.10;;
3901;SDS011;1966;49.908;9.156;2023-09-19T05:32:26;5.47;;;3.50;;
3901;SDS011;1966;49.908;9.156;2023-09-19T05:37:25;4.00;;;3.27;;
3901;SDS011;1966;49.908;9.156;2023-09-19T05:42:25;10.20;;;3.80;;
3901;SDS011;1966;49.908;9.156;2023-09-19T05:47:24;7.03;;;4.20;;
3901;SDS011;1966;49.908;9.156;2023-09-19T05:52:25;4.10;;;3.30;;
3901;SDS011;1966;49.908;9.156;2023-09-19T05:57:24;4.70;;;3.83;;
3901;SDS011;1966;49.908;9.156;2023-09-19T06:02:23;7.53;;;3.83;;
3901;SDS011;1966;49.908;9.156;2023-09-19T06:07:26;5.47;;;4.10;;
3901;SDS011;1966;49.908;9.156;2023-09-19T06:12:37;4.60;;;3.93;;
3901;SDS011;1966;49.908;9.156;2023-09-19T06:17:36;4.63;;;3.70;;
3901;SDS011;1966;49.908;9.156;2023-09-19T06:22:37;7.33;;;4.40;;
3901;SDS011;1966;49.908;9.156;2023-09-19T06:27:37;6.10;;;4.30;;
3901;SDS011;1966;49.908;9.156;2023-09-19T06:32:37;4.67;;;4.17;;
3901;SDS011;1966;49.908;9.156;2023-09-19T06:37:38;6.37;;;3.67;;
3901;SDS011;1966;49.908;9.156;2023-09-19T06:42:37;6.67;;;3.60;;
3901;SDS011;1966;49.908;9.156;2023-09-19T06:47:36;4.00;;;3.60;;
3901;SDS011;1966;49.908;9.156;2023-09-19T06:52:37;5.70;;;3.87;;
3901;SDS011;1966;49.908;9.156;2023-09-19T06:57:36;7.13;;;3.30;;
3901;SDS011;1966;49.908;9.156;2023-09-19T07:02:35;6.47;;;3.63;;
3901;SDS011;1966;49.908;9.156;2023-09-19T07:07:35;6.07;;;3.47;;
3901;SDS011;1966;49.908;9.156;2023-09-19T07:12:35;5.83;;;3.30;;
3901;SDS011;1966;49.908;9.156;2023-09-19T07:17:34;5.70;;;3.07;;
3901;SDS011;1966;49.908;9.156;2023-09-19T07:22:34;7.23;;;3.17;;
3901;SDS011;1966;49.908;9.156;2023-09-19T07:27:35;6.10;;;3.07;;
3901;SDS011;1966;49.908;9.156;2023-09-19T07:32:34;6.20;;;3.47;;
3901;SDS011;1966;49.908;9.156;2023-09-19T07:37:34;6.00;;;3.33;;
3901;SDS011;1966;49.908;9.156;2023-09-19T07:42:35;5.30;;;3.30;;
3901;SDS011;1966;49.908;9.156;2023-09-19T07:47:34;6.37;;;3.50;;
3901;SDS011;1966;49.908;9.156;2023-09-19T07:52:34;6.63;;;3.97;;
3901;SDS011;1966;49.908;9.156;2023-09-19T07:57:33;4.33;;;3.30;;
3901;SDS011;1966;49.908;9.156;2023-09-19T08:02:35;4.00;;;3.30;;
3901;SDS011;1966;49.908;9.156;2023-09-19T08:07:36;7.90;;;3.30;;
3901;SDS011;1966;49.908;9.156;2023-09-19T08:12:35;6.27;;;2.83;;
3901;SDS011;1966;49.908;9.156;2023-09-19T08:17:36;11.83;;;3.40;;
3901;SDS011;1966;49.908;9.156;2023-09-19T08:22:35;4.40;;;2.93;;
3901;SDS011;1966;49.908;9.156;2023-09-19T08:27:34;4.73;;;3.03;;
3901;SDS011;1966;49.908;9.156;2023-09-19T08:32:36;4.37;;;2.40;;
3901;SDS011;1966;49.908;9.156;2023-09-19T08:37:35;7.37;;;3.20;;
3901;SDS011;1966;49.908;9.156;2023-09-19T08:42:47;3.10;;;2.63;;
3901;SDS011;1966;49.908;9.156;2023-09-19T08:47:50;2.70;;;2.43;;
3901;SDS011;1966;49.908;9.156;2023-09-19T08:52:53;3.87;;;2.60;;
3901;SDS011;1966;49.908;9.156;2023-09-19T08:57:57;3.63;;;2.83;;
3901;SDS011;1966;49.908;9.156;2023-09-19T09:02:59;7.00;;;3.03;;
3901;SDS011;1966;49.908;9.156;2023-09-19T09:07:59;4.80;;;2.97;;
3901;SDS011;1966;49.908;9.156;2023-09-19T09:12:58;4.90;;;2.87;;
3901;SDS011;1966;49.908;9.156;2023-09-19T09:17:59;3.73;;;2.67;;
3901;SDS011;1966;49.908;9.156;2023-09-19T09:22:58;7.87;;;2.70;;
3901;SDS011;1966;49.908;9.156;2023-09-19T09:27:58;5.27;;;2.97;;
3901;SDS011;1966;49.908;9.156;2023-09-19T09:33:08;3.50;;;2.50;;
3901;SDS011;1966;49.908;9.156;2023-09-19T09:38:09;9.27;;;2.60;;
3901;SDS011;1966;49.908;9.156;2023-09-19T09:43:11;6.27;;;2.80;;
3901;SDS011;1966;49.908;9.156;2023-09-19T09:48:25;3.53;;;2.47;;
3901;SDS011;1966;49.908;9.156;2023-09-19T09:53:30;3.93;;;2.23;;
3901;SDS011;1966;49.908;9.156;2023-09-19T09:58:30;4.43;;;3.10;;
3901;SDS011;1966;49.908;9.156;2023-09-19T10:03:32;3.13;;;2.70;;
3901;SDS011;1966;49.908;9.156;2023-09-19T10:08:36;6.33;;;2.90;;
3901;SDS011;1966;49.908;9.156;2023-09-19T10:13:35;6.87;;;2.80;;
3901;SDS011;1966;49.908;9.156;2023-09-19T10:18:41;7.27;;;3.63;;
3901;SDS011;1966;49.908;9.156;2023-09-19T10:23:41;3.57;;;2.70;;
3901;SDS011;1966;49.908;9.156;2023-09-19T10:28:43;5.27;;;2.90;;
3901;SDS011;1966;49.908;9.156;2023-09-19T10:33:47;4.20;;;2.30;;
3901;SDS011;1966;49.908;9.156;2023-09-19T10:38:48;5.97;;;2.70;;
3901;SDS011;1966;49.908;9.156;2023-09-19T10:43:51;4.23;;;2.20;;
3901;SDS011;1966;49.908;9.156;2023-09-19T10:48:53;6.93;;;3.03;;
3901;SDS011;1966;49.908;9.156;2023-09-19T10:53:59;4.07;;;2.50;;
3901;SDS011;1966;49.908;9.156;2023-09-19T10:59:05;8.00;;;2.60;;
3901;SDS011;1966;49.908;9.156;2023-09-19T11:09:20;4.83;;;2.90;;
3901;SDS011;1966;49.908;9.156;2023-09-19T11:14:40;5.70;;;2.70;;
3901;SDS011;1966;49.908;9.156;2023-09-19T11:25:10;5.70;;;2.50;;
3901;SDS011;1966;49.908;9.156;2023-09-19T11:30:32;5.63;;;2.67;;
3901;SDS011;1966;49.908;9.156;2023-09-19T11:40:47;4.10;;;2.47;;
3901;SDS011;1966;49.908;9.156;2023-09-19T11:46:03;7.30;;;2.70;;
3901;SDS011;1966;49.908;9.156;2023-09-19T11:51:09;5.37;;;2.50;;
3901;SDS011;1966;49.908;9.156;2023-09-19T11:56:14;6.23;;;3.00;;
3901;SDS011;1966;49.908;9.156;2023-09-19T12:01:16;4.43;;;2.30;;
3901;SDS011;1966;49.908;9.156;2023-09-19T12:06:20;3.40;;;2.10;;
3901;SDS011;1966;49.908;9.156;2023-09-19T12:11:21;5.33;;;2.60;;
3901;SDS011;1966;49.908;9.156;2023-09-19T12:16:22;5.37;;;2.10;;
3901;SDS011;1966;49.908;9.156;2023-09-19T12:21:22;5.40;;;2.40;;
3901;SDS011;1966;49.908;9.156;2023-09-19T12:26:23;4.57;;;2.67;;
3901;SDS011;1966;49.908;9.156;2023-09-19T12:31:22;2.83;;;2.33;;
3901;SDS011;1966;49.908;9.156;2023-09-19T12:36:24;3.57;;;2.67;;
3901;SDS011;1966;49.908;9.156;2023-09-19T12:41:29;4.27;;;2.67;;
3901;SDS011;1966;49.908;9.156;2023-09-19T12:46:28;5.77;;;2.60;;
3901;SDS011;1966;49.908;9.156;2023-09-19T12:51:34;3.00;;;2.10;;
3901;SDS011;1966;49.908;9.156;2023-09-19T12:56:40;2.47;;;2.27;;
3901;SDS011;1966;49.908;9.156;2023-09-19T13:01:42;3.10;;;2.30;;
3901;SDS011;1966;49.908;9.156;2023-09-19T13:06:44;8.40;;;2.37;;
3901;SDS011;1966;49.908;9.156;2023-09-19T13:11:46;4.50;;;2.20;;
3901;SDS011;1966;49.908;9.156;2023-09-19T13:16:54;3.77;;;2.27;;
3901;SDS011;1966;49.908;9.156;2023-09-19T13:21:54;3.90;;;1.90;;
3901;SDS011;1966;49.908;9.156;2023-09-19T13:26:57;5.80;;;2.50;;
3901;SDS011;1966;49.908;9.156;2023-09-19T13:31:58;2.57;;;2.20;;
3901;SDS011;1966;49.908;9.156;2023-09-19T13:36:57;2.10;;;1.80;;
3901;SDS011;1966;49.908;9.156;2023-09-19T13:41:59;4.90;;;2.20;;
3901;SDS011;1966;49.908;9.156;2023-09-19T13:47:00;2.10;;;1.90;;
3901;SDS011;1966;49.908;9.156;2023-09-19T13:52:00;2.20;;;1.83;;
3901;SDS011;1966;49.908;9.156;2023-09-19T13:57:02;3.33;;;2.13;;
3901;SDS011;1966;49.908;9.156;2023-09-19T14:02:03;4.27;;;2.33;;
3901;SDS011;1966;49.908;9.156;2023-09-19T14:07:03;4.60;;;2.43;;
3901;SDS011;1966;49.908;9.156;2023-09-19T14:12:04;3.57;;;2.07;;
3901;SDS011;1966;49.908;9.156;2023-09-19T14:17:04;3.13;;;2.07;;
3901;SDS011;1966;49.908;9.156;2023-09-19T14:22:05;3.67;;;2.00;;
3901;SDS011;1966;49.908;9.156;2023-09-19T14:27:07;3.70;;;2.10;;
3901;SDS011;1966;49.908;9.156;2023-09-19T14:32:07;2.60;;;2.30;;
3901;SDS011;1966;49.908;9.156;2023-09-19T14:37:06;3.70;;;2.27;;
3901;SDS011;1966;49.908;9.156;2023-09-19T14:42:07;3.67;;;1.90;;
3901;SDS011;1966;49.908;9.156;2023-09-19T14:47:07;3.77;;;2.27;;
3901;SDS011;1966;49.908;9.156;2023-09-19T14:52:07;7.20;;;2.90;;
3901;SDS011;1966;49.908;9.156;2023-09-19T14:57:08;3.10;;;1.93;;
3901;SDS011;1966;49.908;9.156;2023-09-19T15:02:08;5.60;;;2.20;;
3901;SDS011;1966;49.908;9.156;2023-09-19T15:07:07;3.43;;;2.10;;
3901;SDS011;1966;49.908;9.156;2023-09-19T15:12:08;2.93;;;2.07;;
3901;SDS011;1966;49.908;9.156;2023-09-19T15:17:08;2.50;;;1.97;;
3901;SDS011;1966;49.908;9.156;2023-09-19T15:22:07;2.90;;;2.10;;
3901;SDS011;1966;49.908;9.156;2023-09-19T15:27:10;2.73;;;1.90;;
3901;SDS011;1966;49.908;9.156;2023-09-19T15:32:09;3.53;;;2.17;;
3901;SDS011;1966;49.908;9.156;2023-09-19T15:37:09;3.60;;;2.00;;
3901;SDS011;1966;49.908;9.156;2023-09-19T15:42:10;3.90;;;2.07;;
3901;SDS011;1966;49.908;9.156;2023-09-19T15:47:09;2.47;;;1.93;;
3901;SDS011;1966;49.908;9.156;2023-09-19T15:52:09;3.77;;;1.97;;
3901;SDS011;1966;49.908;9.156;2023-09-19T15:57:09;4.20;;;2.03;;
3901;SDS011;1966;49.908;9.156;2023-09-19T16:02:10;4.97;;;2.50;;
3901;SDS011;1966;49.908;9.156;2023-09-19T16:07:10;6.83;;;3.17;;
3901;SDS011;1966;49.908;9.156;2023-09-19T16:12:10;5.43;;;2.10;;
3901;SDS011;1966;49.908;9.156;2023-09-19T16:17:12;5.20;;;2.30;;
3901;SDS011;1966;49.908;9.156;2023-09-19T16:22:11;3.83;;;2.17;;
3901;SDS011;1966;49.908;9.156;2023-09-19T16:27:13;4.77;;;2.40;;
3901;SDS011;1966;49.908;9.156;2023-09-19T16:32:13;3.07;;;2.17;;
3901;SDS011;1966;49.908;9.156;2023-09-19T16:37:12;3.27;;;2.07;;
3901;SDS011;1966;49.908;9.156;2023-09-19T16:42:14;2.80;;;2.00;;
3901;SDS011;1966;49.908;9.156;2023-09-19T16:47:14;3.00;;;2.03;;
3901;SDS011;1966;49.908;9.156;2023-09-19T16:52:13;5.23;;;2.43;;
3901;SDS011;1966;49.908;9.156;2023-09-19T16:57:13;5.47;;;2.30;;
3901;SDS011;1966;49.908;9.156;2023-09-19T17:02:13;5.57;;;2.93;;
3901;SDS011;1966;49.908;9.156;2023-09-19T17:07:13;2.90;;;2.60;;
3901;SDS011;1966;49.908;9.156;2023-09-19T17:12:13;3.20;;;2.90;;
3901;SDS011;1966;49.908;9.156;2023-09-19T17:17:12;4.60;;;2.50;;
3901;SDS011;1966;49.908;9.156;2023-09-19T17:22:12;4.73;;;2.43;;
3901;SDS011;1966;49.908;9.156;2023-09-19T17:27:12;5.03;;;2.03;;
3901;SDS011;1966;49.908;9.156;2023-09-19T17:32:12;6.50;;;3.90;;
3901;SDS011;1966;49.908;9.156;2023-09-19T17:37:11;5.93;;;2.30;;
3901;SDS011;1966;49.908;9.156;2023-09-19T17:42:11;3.93;;;2.27;;
3901;SDS011;1966;49.908;9.156;2023-09-19T17:47:12;2.30;;;2.10;;
3901;SDS011;1966;49.908;9.156;2023-09-19T17:52:12;5.37;;;2.00;;
3901;SDS011;1966;49.908;9.156;2023-09-19T17:57:11;3.77;;;2.30;;
3901;SDS011;1966;49.908;9.156;2023-09-19T18:02:10;4.13;;;2.10;;
3901;SDS011;1966;49.908;9.156;2023-09-19T18:07:11;6.20;;;2.13;;
3901;SDS011;1966;49.908;9.156;2023-09-19T18:12:10;3.53;;;2.40;;
3901;SDS011;1966;49.908;9.156;2023-09-19T18:17:09;3.60;;;2.30;;
3901;SDS011;1966;49.908;9.156;2023-09-19T18:22:08;2.90;;;2.07;;
3901;SDS011;1966;49.908;9.156;2023-09-19T18:27:10;4.27;;;2.13;;
3901;SDS011;1966;49.908;9.156;2023-09-19T18:32:10;3.20;;;2.33;;
3901;SDS011;1966;49.908;9.156;2023-09-19T18:37:09;2.60;;;2.37;;
3901;SDS011;1966;49.908;9.156;2023-09-19T18:42:10;2.63;;;2.23;;
3901;SDS011;1966;49.908;9.156;2023-09-19T18:47:10;3.43;;;2.37;;
3901;SDS011;1966;49.908;9.156;2023-09-19T18:52:10;2.70;;;2.37;;
3901;SDS011;1966;49.908;9.156;2023-09-19T18:57:10;2.97;;;2.30;;
3901;SDS011;1966;49.908;9.156;2023-09-19T19:02:11;3.50;;;2.37;;
3901;SDS011;1966;49.908;9.156;2023-09-19T19:07:10;3.20;;;2.30;;
3901;SDS011;1966;49.908;9.156;2023-09-19T19:12:15;2.70;;;2.33;;
3901;SDS011;1966;49.908;9.156;2023-09-19T19:17:14;4.67;;;2.47;;
3901;SDS011;1966;49.908;9.156;2023-09-19T19:22:14;2.63;;;2.43;;
3901;SDS011;1966;49.908;9.156;2023-09-19T19:27:15;3.80;;;2.50;;
3901;SDS011;1966;49.908;9.156;2023-09-19T19:32:15;3.00;;;2.40;;
3901;SDS011;1966;49.908;9.156;2023-09-19T19:37:14;4.03;;;2.70;;
3901;SDS011;1966;49.908;9.156;2023-09-19T19:42:17;3.50;;;2.40;;
3901;SDS011;1966;49.908;9.156;2023-09-19T19:47:16;3.30;;;2.40;;
3901;SDS011;1966;49.908;9.156;2023-09-19T19:52:15;4.17;;;2.77;;
3901;SDS011;1966;49.908;9.156;2023-09-19T19:57:14;3.20;;;2.63;;
3901;SDS011;1966;49.908;9.156;2023-09-19T20:02:18;3.93;;;2.17;;
3901;SDS011;1966;49.908;9.156;2023-09-19T20:07:17;6.83;;;2.77;;
3901;SDS011;1966;49.908;9.156;2023-09-19T20:12:16;4.00;;;2.47;;
3901;SDS011;1966;49.908;9.156;2023-09-19T20:17:15;2.90;;;2.60;;
3901;SDS011;1966;49.908;9.156;2023-09-19T20:22:17;6.53;;;3.10;;
3901;SDS011;1966;49.908;9.156;2023-09-19T20:27:16;3.47;;;2.63;;
3901;SDS011;1966;49.908;9.156;2023-09-19T20:32:15;4.07;;;2.70;;
3901;SDS011;1966;49.908;9.156;2023-09-19T20:37:18;4.00;;;2.50;;
3901;SDS011;1966;49.908;9.156;2023-09-19T20:42:18;5.17;;;2.80;;
3901;SDS011;1966;49.908;9.156;2023-09-19T20:47:19;3.23;;;2.43;;
3901;SDS011;1966;49.908;9.156;2023-09-19T20:52:20;3.70;;;2.50;;
3901;SDS011;1966;49.908;9.156;2023-09-19T20:57:19;3.50;;;2.80;;
3901;SDS011;1966;49.908;9.156;2023-09-19T21:02:19;5.53;;;2.73;;
3901;SDS011;1966;49.908;9.156;2023-09-19T21:07:19;3.80;;;2.90;;
3901;SDS011;1966;49.908;9.156;2023-09-19T21:12:19;3.03;;;2.73;;
3901;SDS011;1966;49.908;9.156;2023-09-19T21:17:19;3.07;;;2.67;;
3901;SDS011;1966;49.908;9.156;2023-09-19T21:22:19;4.47;;;2.90;;
3901;SDS011;1966;49.908;9.156;2023-09-19T21:27:19;3.87;;;3.43;;
3901;SDS011;1966;49.908;9.156;2023-09-19T21:32:18;4.90;;;3.83;;
3901;SDS011;1966;49.908;9.156;2023-09-19T21:37:17;8.10;;;6.07;;
3901;SDS011;1966;49.908;9.156;2023-09-19T21:42:18;9.60;;;6.10;;
3901;SDS011;1966;49.908;9.156;2023-09-19T21:47:17;7.93;;;5.23;;
3901;SDS011;1966;49.908;9.156;2023-09-19T21:52:16;5.70;;;4.40;;
3901;SDS011;1966;49.908;9.156;2023-09-19T21:57:15;5.23;;;4.33;;
3901;SDS011;1966;49.908;9.156;2023-09-19T22:02:16;5.90;;;4.10;;
3901;SDS011;1966;49.908;9.156;2023-09-19T22:07:15;6.33;;;3.90;;
3901;SDS011;1966;49.908;9.156;2023-09-19T22:12:14;3.57;;;3.27;;
3901;SDS011;1966;49.908;9.156;2023-09-19T22:17:16;4.70;;;3.60;;
3901;SDS011;1966;49.908;9.156;2023-09-19T22:22:16;3.60;;;3.30;;
3901;SDS011;1966;49.908;9.156;2023-09-19T22:27:16;5.10;;;3.83;;
3901;SDS011;1966;49.908;9.156;2023-09-19T22:32:19;5.70;;;3.90;;
3901;SDS011;1966;49.908;9.156;2023-09-19T22:37:19;5.53;;;4.00;;
3901;SDS011;1966;49.908;9.156;2023-09-19T22:42:19;5.50;;;4.20;;
3901;SDS011;1966;49.908;9.156;2023-09-19T22:47:22;6.03;;;3.60;;
3901;SDS011;1966;49.908;9.156;2023-09-19T22:52:22;4.63;;;3.43;;
3901;SDS011;1966;49.908;9.156;2023-09-19T22:57:22;4.23;;;3.80;;
3901;SDS011;1966;49.908;9.156;2023-09-19T23:02:22;4.37;;;3.83;;
3901;SDS011;1966;49.908;9.156;2023-09-19T23:07:26;3.70;;;3.33;;
3901;SDS011;1966;49.908;9.156;2023-09-19T23:12:26;5.10;;;4.50;;
3901;SDS011;1966;49.908;9.156;2023-09-19T23:17:27;8.20;;;4.40;;
3901;SDS011;1966;49.908;9.156;2023-09-19T23:22:29;7.20;;;4.70;;
3901;SDS011;1966;49.908;9.156;2023-09-19T23:27:28;6.57;;;4.70;;
3901;SDS011;1966;49.908;9.156;2023-09-19T23:32:33;6.90;;;3.90;;
3901;SDS011;1966;49.908;9.156;2023-09-19T23:37:33;5.33;;;4.40;;
3901;SDS011;1966;49.908;9.156;2023-09-19T23:42:32;5.77;;;4.47;;
3901;SDS011;1966;49.908;9.156;2023-09-19T23:47:33;7.13;;;4.47;;
3901;SDS011;1966;49.908;9.156;2023-09-19T23:52:33;4.40;;;3.90;;
3901;SDS011;1966;49.908;9.156;2023-09-19T23:57:34;3.93;;;3.40;;
